sensor_id;sensor_type;location;lat;lon;timestamp;temperature;humidity
19567;DHT22;9930;49.240;8.548;2023-02-01T00:01:39;8.10;82.60
19567;DHT22;9930;49.240;8.548;2023-02-01T00:04:09;8.10;82.70
19567;DHT22;9930;49.240;8.548;2023-02-01T00:06:39;8.10;82.80
19567;DHT22;9930;49.240;8.548;2023-02-01T00:09:08;8.10;82.70
19567;DHT22;9930;49.240;8.548;2023-02-01T00:11:35;8.20;82.70
19567;DHT22;9930;49.240;8.548;2023-02-01T00:14:07;8.20;82.80
19567;DHT22;9930;49.240;8.548;2023-02-01T00:16:42;8.20;82.70
19567;DHT22;9930;49.240;8.548;2023-02-01T00:19:13;8.20;83.10
19567;DHT22;9930;49.240;8.548;2023-02-01T00:21:43;8.20;82.80
19567;DHT22;9930;49.240;8.548;2023-02-01T00:24:12;8.20;82.80
19567;DHT22;9930;49.240;8.548;2023-02-01T00:26:41;8.30;82.80
19567;DHT22;9930;49.240;8.548;2023-02-01T00:29:17;8.30;82.70
19567;DHT22;9930;49.240;8.548;2023-02-01T00:31:45;8.30;82.70
19567;DHT22;9930;49.240;8.548;2023-02-01T00:34:13;8.30;82.70
19567;DHT22;9930;49.240;8.548;2023-02-01T00:36:43;8.30;82.70
19567;DHT22;9930;49.240;8.548;2023-02-01T00:39:10;8.30;82.70
19567;DHT22;9930;49.240;8.548;2023-02-01T00:41:39;8.30;82.70
19567;DHT22;9930;49.240;8.548;2023-02-01T00:44:09;8.40;82.70
19567;DHT22;9930;49.240;8.548;2023-02-01T00:46:42;8.30;82.70
19567;DHT22;9930;49.240;8.548;2023-02-01T00:49:12;8.30;82.80
19567;DHT22;9930;49.240;8.548;2023-02-01T00:51:39;8.40;82.80
19567;DHT22;9930;49.240;8.548;2023-02-01T00:54:13;8.40;82.80
19567;DHT22;9930;49.240;8.548;2023-02-01T00:56:39;8.40;82.90
19567;DHT22;9930;49.240;8.548;2023-02-01T00:59:11;8.40;82.90
19567;DHT22;9930;49.240;8.548;2023-02-01T01:01:39;8.40;82.90
19567;DHT22;9930;49.240;8.548;2023-02-01T01:04:08;8.40;82.90
19567;DHT22;9930;49.240;8.548;2023-02-01T01:06:35;8.40;82.80
19567;DHT22;9930;49.240;8.548;2023-02-01T01:09:09;8.50;82.70
19567;DHT22;9930;49.240;8.548;2023-02-01T01:11:42;8.40;82.60
19567;DHT22;9930;49.240;8.548;2023-02-01T01:14:09;8.40;82.70
19567;DHT22;9930;49.240;8.548;2023-02-01T01:16:41;8.50;82.70
19567;DHT22;9930;49.240;8.548;2023-02-01T01:19:09;8.50;82.80
19567;DHT22;9930;49.240;8.548;2023-02-01T01:21:35;8.40;82.60
19567;DHT22;9930;49.240;8.548;2023-02-01T01:24:04;8.50;82.70
19567;DHT22;9930;49.240;8.548;2023-02-01T01:26:34;8.50;82.70
19567;DHT22;9930;49.240;8.548;2023-02-01T01:28:59;8.50;82.60
19567;DHT22;9930;49.240;8.548;2023-02-01T01:31:31;8.50;82.50
19567;DHT22;9930;49.240;8.548;2023-02-01T01:34:00;8.50;82.50
19567;DHT22;9930;49.240;8.548;2023-02-01T01:36:31;8.50;82.50
19567;DHT22;9930;49.240;8.548;2023-02-01T01:38:57;8.50;82.50
19567;DHT22;9930;49.240;8.548;2023-02-01T01:41:29;8.50;82.60
19567;DHT22;9930;49.240;8.548;2023-02-01T01:44:04;8.40;82.50
19567;DHT22;9930;49.240;8.548;2023-02-01T01:46:41;8.40;82.50
19567;DHT22;9930;49.240;8.548;2023-02-01T01:49:33;8.40;82.60
19567;DHT22;9930;49.240;8.548;2023-02-01T01:52:04;8.40;82.50
19567;DHT22;9930;49.240;8.548;2023-02-01T01:54:43;8.40;82.50
19567;DHT22;9930;49.240;8.548;2023-02-01T01:57:28;8.40;82.70
19567;DHT22;9930;49.240;8.548;2023-02-01T02:00:13;8.40;82.60
19567;DHT22;9930;49.240;8.548;2023-02-01T02:02:43;8.40;82.90
19567;DHT22;9930;49.240;8.548;2023-02-01T02:05:12;8.40;82.70
19567;DHT22;9930;49.240;8.548;2023-02-01T02:07:46;8.50;83.50
19567;DHT22;9930;49.240;8.548;2023-02-01T02:10:15;8.40;82.80
19567;DHT22;9930;49.240;8.548;2023-02-01T02:12:46;8.40;82.70
19567;DHT22;9930;49.240;8.548;2023-02-01T02:15:14;8.40;82.80
19567;DHT22;9930;49.240;8.548;2023-02-01T02:23:27;8.40;82.80
19567;DHT22;9930;49.240;8.548;2023-02-01T02:32:08;8.40;82.80
19567;DHT22;9930;49.240;8.548;2023-02-01T02:43:45;8.40;82.90
19567;DHT22;9930;49.240;8.548;2023-02-01T02:46:50;8.40;82.80
19567;DHT22;9930;49.240;8.548;2023-02-01T02:49:52;8.40;82.90
19567;DHT22;9930;49.240;8.548;2023-02-01T02:52:51;8.50;82.90
19567;DHT22;9930;49.240;8.548;2023-02-01T02:55:43;8.50;82.90
19567;DHT22;9930;49.240;8.548;2023-02-01T02:58:12;8.50;82.90
19567;DHT22;9930;49.240;8.548;2023-02-01T03:01:01;8.50;82.80
19567;DHT22;9930;49.240;8.548;2023-02-01T03:03:48;8.50;82.70
19567;DHT22;9930;49.240;8.548;2023-02-01T03:06:38;8.50;82.80
19567;DHT22;9930;49.240;8.548;2023-02-01T03:09:12;8.50;82.70
19567;DHT22;9930;49.240;8.548;2023-02-01T03:11:48;8.50;83.10
19567;DHT22;9930;49.240;8.548;2023-02-01T03:14:41;8.50;82.70
19567;DHT22;9930;49.240;8.548;2023-02-01T03:17:18;8.50;82.80
19567;DHT22;9930;49.240;8.548;2023-02-01T03:19:52;8.50;82.80
19567;DHT22;9930;49.240;8.548;2023-02-01T03:22:23;8.50;83.00
19567;DHT22;9930;49.240;8.548;2023-02-01T03:25:04;8.50;83.00
19567;DHT22;9930;49.240;8.548;2023-02-01T03:27:46;8.50;83.00
19567;DHT22;9930;49.240;8.548;2023-02-01T03:30:18;8.50;83.10
19567;DHT22;9930;49.240;8.548;2023-02-01T03:32:50;8.50;83.20
19567;DHT22;9930;49.240;8.548;2023-02-01T03:38:37;8.50;83.40
19567;DHT22;9930;49.240;8.548;2023-02-01T03:41:41;8.50;83.10
19567;DHT22;9930;49.240;8.548;2023-02-01T03:47:27;8.50;83.80
19567;DHT22;9930;49.240;8.548;2023-02-01T03:49:59;8.50;83.10
19567;DHT22;9930;49.240;8.548;2023-02-01T03:52:44;8.50;83.00
19567;DHT22;9930;49.240;8.548;2023-02-01T03:55:16;8.50;83.10
19567;DHT22;9930;49.240;8.548;2023-02-01T03:57:55;8.60;83.10
19567;DHT22;9930;49.240;8.548;2023-02-01T04:00:26;8.50;83.10
19567;DHT22;9930;49.240;8.548;2023-02-01T04:02:53;8.50;83.10
19567;DHT22;9930;49.240;8.548;2023-02-01T04:05:20;8.60;83.10
19567;DHT22;9930;49.240;8.548;2023-02-01T04:07:47;8.60;83.10
19567;DHT22;9930;49.240;8.548;2023-02-01T04:10:15;8.60;83.10
19567;DHT22;9930;49.240;8.548;2023-02-01T04:12:41;8.60;83.10
19567;DHT22;9930;49.240;8.548;2023-02-01T04:15:11;8.60;83.10
19567;DHT22;9930;49.240;8.548;2023-02-01T04:17:39;8.60;83.10
19567;DHT22;9930;49.240;8.548;2023-02-01T04:20:07;8.60;83.00
19567;DHT22;9930;49.240;8.548;2023-02-01T04:22:37;8.60;83.00
19567;DHT22;9930;49.240;8.548;2023-02-01T04:25:07;8.60;82.90
19567;DHT22;9930;49.240;8.548;2023-02-01T04:27:38;8.60;83.00
19567;DHT22;9930;49.240;8.548;2023-02-01T04:30:06;8.60;82.90
19567;DHT22;9930;49.240;8.548;2023-02-01T04:32:39;8.60;82.80
19567;DHT22;9930;49.240;8.548;2023-02-01T04:35:09;8.60;82.80
19567;DHT22;9930;49.240;8.548;2023-02-01T04:37:39;8.50;82.70
19567;DHT22;9930;49.240;8.548;2023-02-01T04:40:13;8.60;82.80
19567;DHT22;9930;49.240;8.548;2023-02-01T04:42:39;8.50;82.70
19567;DHT22;9930;49.240;8.548;2023-02-01T04:45:09;8.50;82.70
19567;DHT22;9930;49.240;8.548;2023-02-01T04:47:39;8.50;82.70
19567;DHT22;9930;49.240;8.548;2023-02-01T04:50:09;8.50;82.70
19567;DHT22;9930;49.240;8.548;2023-02-01T04:52:39;8.50;82.70
19567;DHT22;9930;49.240;8.548;2023-02-01T04:55:09;8.50;82.80
19567;DHT22;9930;49.240;8.548;2023-02-01T04:57:35;8.50;82.90
19567;DHT22;9930;49.240;8.548;2023-02-01T05:00:10;8.50;83.00
19567;DHT22;9930;49.240;8.548;2023-02-01T05:02:39;8.50;83.00
19567;DHT22;9930;49.240;8.548;2023-02-01T05:05:09;8.50;82.90
19567;DHT22;9930;49.240;8.548;2023-02-01T05:07:35;8.40;82.90
19567;DHT22;9930;49.240;8.548;2023-02-01T05:10:09;8.40;82.90
19567;DHT22;9930;49.240;8.548;2023-02-01T05:12:38;8.40;82.90
19567;DHT22;9930;49.240;8.548;2023-02-01T05:15:23;8.40;82.90
19567;DHT22;9930;49.240;8.548;2023-02-01T05:17:49;8.40;83.00
19567;DHT22;9930;49.240;8.548;2023-02-01T05:20:17;8.40;83.70
19567;DHT22;9930;49.240;8.548;2023-02-01T05:22:43;8.40;83.00
19567;DHT22;9930;49.240;8.548;2023-02-01T05:25:09;8.50;83.10
19567;DHT22;9930;49.240;8.548;2023-02-01T05:27:38;8.40;82.90
19567;DHT22;9930;49.240;8.548;2023-02-01T05:30:10;8.40;82.90
19567;DHT22;9930;49.240;8.548;2023-02-01T05:32:41;8.40;83.00
19567;DHT22;9930;49.240;8.548;2023-02-01T05:35:09;8.40;83.00
19567;DHT22;9930;49.240;8.548;2023-02-01T05:37:39;8.40;83.00
19567;DHT22;9930;49.240;8.548;2023-02-01T05:40:09;8.40;83.00
19567;DHT22;9930;49.240;8.548;2023-02-01T05:42:38;8.40;83.00
19567;DHT22;9930;49.240;8.548;2023-02-01T05:45:09;8.40;83.10
19567;DHT22;9930;49.240;8.548;2023-02-01T05:47:42;8.40;83.10
19567;DHT22;9930;49.240;8.548;2023-02-01T05:50:09;8.40;83.10
19567;DHT22;9930;49.240;8.548;2023-02-01T05:52:38;8.40;83.10
19567;DHT22;9930;49.240;8.548;2023-02-01T05:55:05;8.40;83.20
19567;DHT22;9930;49.240;8.548;2023-02-01T05:57:36;8.40;83.40
19567;DHT22;9930;49.240;8.548;2023-02-01T06:00:14;8.40;83.60
19567;DHT22;9930;49.240;8.548;2023-02-01T06:02:40;8.40;83.40
19567;DHT22;9930;49.240;8.548;2023-02-01T06:05:11;8.40;83.60
19567;DHT22;9930;49.240;8.548;2023-02-01T06:07:42;8.40;83.70
19567;DHT22;9930;49.240;8.548;2023-02-01T06:10:13;8.40;83.70
19567;DHT22;9930;49.240;8.548;2023-02-01T06:12:39;8.40;83.70
19567;DHT22;9930;49.240;8.548;2023-02-01T06:15:10;8.40;83.60
19567;DHT22;9930;49.240;8.548;2023-02-01T06:17:39;8.40;83.70
19567;DHT22;9930;49.240;8.548;2023-02-01T06:20:09;8.30;83.50
19567;DHT22;9930;49.240;8.548;2023-02-01T06:22:39;8.40;83.60
19567;DHT22;9930;49.240;8.548;2023-02-01T06:25:09;8.40;83.70
19567;DHT22;9930;49.240;8.548;2023-02-01T06:27:39;8.30;83.70
19567;DHT22;9930;49.240;8.548;2023-02-01T06:30:08;8.40;83.80
19567;DHT22;9930;49.240;8.548;2023-02-01T06:32:41;8.30;83.80
19567;DHT22;9930;49.240;8.548;2023-02-01T06:35:10;8.30;83.80
19567;DHT22;9930;49.240;8.548;2023-02-01T06:37:41;8.30;83.90
19567;DHT22;9930;49.240;8.548;2023-02-01T06:40:10;8.30;84.00
19567;DHT22;9930;49.240;8.548;2023-02-01T06:42:39;8.30;84.20
19567;DHT22;9930;49.240;8.548;2023-02-01T06:45:09;8.30;84.10
19567;DHT22;9930;49.240;8.548;2023-02-01T06:47:36;8.30;84.00
19567;DHT22;9930;49.240;8.548;2023-02-01T06:50:06;8.40;84.00
19567;DHT22;9930;49.240;8.548;2023-02-01T06:52:37;8.40;84.10
19567;DHT22;9930;49.240;8.548;2023-02-01T06:55:10;8.40;84.20
19567;DHT22;9930;49.240;8.548;2023-02-01T06:57:39;8.40;84.40
19567;DHT22;9930;49.240;8.548;2023-02-01T07:00:09;8.40;84.40
19567;DHT22;9930;49.240;8.548;2023-02-01T07:02:40;8.40;84.30
19567;DHT22;9930;49.240;8.548;2023-02-01T07:05:12;8.40;84.50
19567;DHT22;9930;49.240;8.548;2023-02-01T07:07:39;8.40;84.30
19567;DHT22;9930;49.240;8.548;2023-02-01T07:10:09;8.40;84.20
19567;DHT22;9930;49.240;8.548;2023-02-01T07:12:39;8.40;84.30
19567;DHT22;9930;49.240;8.548;2023-02-01T07:15:10;8.40;84.40
19567;DHT22;9930;49.240;8.548;2023-02-01T07:17:39;8.40;84.30
19567;DHT22;9930;49.240;8.548;2023-02-01T07:20:13;8.30;84.40
19567;DHT22;9930;49.240;8.548;2023-02-01T07:22:41;8.30;84.60
19567;DHT22;9930;49.240;8.548;2023-02-01T07:25:09;8.40;84.40
19567;DHT22;9930;49.240;8.548;2023-02-01T07:27:37;8.40;84.50
19567;DHT22;9930;49.240;8.548;2023-02-01T07:30:09;8.40;84.50
19567;DHT22;9930;49.240;8.548;2023-02-01T07:32:39;8.40;84.70
19567;DHT22;9930;49.240;8.548;2023-02-01T07:35:08;8.40;84.80
19567;DHT22;9930;49.240;8.548;2023-02-01T07:37:42;8.40;84.80
19567;DHT22;9930;49.240;8.548;2023-02-01T07:40:10;8.40;84.80
19567;DHT22;9930;49.240;8.548;2023-02-01T07:42:42;8.50;84.80
19567;DHT22;9930;49.240;8.548;2023-02-01T07:45:14;8.50;85.00
19567;DHT22;9930;49.240;8.548;2023-02-01T07:47:43;8.50;85.00
19567;DHT22;9930;49.240;8.548;2023-02-01T07:50:14;8.50;84.90
19567;DHT22;9930;49.240;8.548;2023-02-01T07:52:42;8.50;84.90
19567;DHT22;9930;49.240;8.548;2023-02-01T07:55:09;8.60;85.00
19567;DHT22;9930;49.240;8.548;2023-02-01T07:57:38;8.60;84.90
19567;DHT22;9930;49.240;8.548;2023-02-01T08:00:10;8.60;84.80
19567;DHT22;9930;49.240;8.548;2023-02-01T08:02:58;8.60;84.70
19567;DHT22;9930;49.240;8.548;2023-02-01T08:05:24;8.60;84.80
19567;DHT22;9930;49.240;8.548;2023-02-01T08:07:50;8.60;84.70
19567;DHT22;9930;49.240;8.548;2023-02-01T08:10:17;8.60;84.80
19567;DHT22;9930;49.240;8.548;2023-02-01T08:12:46;8.60;84.70
19567;DHT22;9930;49.240;8.548;2023-02-01T08:15:14;8.60;84.70
19567;DHT22;9930;49.240;8.548;2023-02-01T08:17:50;8.60;84.70
19567;DHT22;9930;49.240;8.548;2023-02-01T08:20:17;8.60;84.70
19567;DHT22;9930;49.240;8.548;2023-02-01T08:22:44;8.70;84.70
19567;DHT22;9930;49.240;8.548;2023-02-01T08:25:10;8.70;84.70
19567;DHT22;9930;49.240;8.548;2023-02-01T08:27:43;8.70;84.70
19567;DHT22;9930;49.240;8.548;2023-02-01T08:30:10;8.70;84.60
19567;DHT22;9930;49.240;8.548;2023-02-01T08:32:42;8.70;84.70
19567;DHT22;9930;49.240;8.548;2023-02-01T08:35:10;8.70;84.80
19567;DHT22;9930;49.240;8.548;2023-02-01T08:37:40;8.70;84.90
19567;DHT22;9930;49.240;8.548;2023-02-01T08:40:08;8.80;85.00
19567;DHT22;9930;49.240;8.548;2023-02-01T08:42:35;8.80;85.00
19567;DHT22;9930;49.240;8.548;2023-02-01T08:45:28;8.80;85.00
19567;DHT22;9930;49.240;8.548;2023-02-01T08:47:57;8.80;85.10
19567;DHT22;9930;49.240;8.548;2023-02-01T08:50:26;8.90;85.30
19567;DHT22;9930;49.240;8.548;2023-02-01T08:52:54;8.90;85.40
19567;DHT22;9930;49.240;8.548;2023-02-01T08:55:22;9.00;85.40
19567;DHT22;9930;49.240;8.548;2023-02-01T08:57:50;9.10;85.30
19567;DHT22;9930;49.240;8.548;2023-02-01T09:00:18;9.10;85.40
19567;DHT22;9930;49.240;8.548;2023-02-01T09:02:46;9.20;85.50
19567;DHT22;9930;49.240;8.548;2023-02-01T09:05:12;9.20;85.40
19567;DHT22;9930;49.240;8.548;2023-02-01T09:07:39;9.30;85.30
19567;DHT22;9930;49.240;8.548;2023-02-01T09:10:07;9.40;85.10
19567;DHT22;9930;49.240;8.548;2023-02-01T09:12:39;9.40;85.00
19567;DHT22;9930;49.240;8.548;2023-02-01T09:15:07;9.50;85.10
19567;DHT22;9930;49.240;8.548;2023-02-01T09:17:40;9.60;84.90
19567;DHT22;9930;49.240;8.548;2023-02-01T09:20:10;9.60;84.60
19567;DHT22;9930;49.240;8.548;2023-02-01T09:22:46;9.70;84.40
19567;DHT22;9930;49.240;8.548;2023-02-01T09:25:11;9.70;84.20
19567;DHT22;9930;49.240;8.548;2023-02-01T09:27:41;9.70;84.00
19567;DHT22;9930;49.240;8.548;2023-02-01T09:30:11;9.70;83.80
19567;DHT22;9930;49.240;8.548;2023-02-01T09:32:40;9.70;83.70
19567;DHT22;9930;49.240;8.548;2023-02-01T09:35:07;9.70;83.60
19567;DHT22;9930;49.240;8.548;2023-02-01T09:37:39;9.80;83.60
19567;DHT22;9930;49.240;8.548;2023-02-01T09:40:14;9.70;83.40
19567;DHT22;9930;49.240;8.548;2023-02-01T09:46:21;9.70;82.90
19567;DHT22;9930;49.240;8.548;2023-02-01T09:48:57;9.70;83.00
19567;DHT22;9930;49.240;8.548;2023-02-01T09:51:33;9.60;83.10
19567;DHT22;9930;49.240;8.548;2023-02-01T09:54:15;9.60;83.10
19567;DHT22;9930;49.240;8.548;2023-02-01T09:56:51;9.60;83.50
19567;DHT22;9930;49.240;8.548;2023-02-01T10:01:48;9.70;83.80
19567;DHT22;9930;49.240;8.548;2023-02-01T10:04:17;9.80;83.90
19567;DHT22;9930;49.240;8.548;2023-02-01T10:15:24;10.00;83.00
19567;DHT22;9930;49.240;8.548;2023-02-01T10:21:18;10.10;83.00
19567;DHT22;9930;49.240;8.548;2023-02-01T10:24:12;10.20;82.70
19567;DHT22;9930;49.240;8.548;2023-02-01T10:29:53;10.20;81.80
19567;DHT22;9930;49.240;8.548;2023-02-01T10:32:27;10.20;81.50
19567;DHT22;9930;49.240;8.548;2023-02-01T10:34:59;10.20;81.40
19567;DHT22;9930;49.240;8.548;2023-02-01T10:37:34;10.10;81.10
19567;DHT22;9930;49.240;8.548;2023-02-01T10:40:08;10.10;80.80
19567;DHT22;9930;49.240;8.548;2023-02-01T10:42:41;10.10;80.90
19567;DHT22;9930;49.240;8.548;2023-02-01T10:45:19;10.10;81.00
19567;DHT22;9930;49.240;8.548;2023-02-01T10:47:55;10.10;81.00
19567;DHT22;9930;49.240;8.548;2023-02-01T10:53:05;10.10;80.90
19567;DHT22;9930;49.240;8.548;2023-02-01T10:55:37;10.10;80.90
19567;DHT22;9930;49.240;8.548;2023-02-01T11:00:56;10.00;80.40
19567;DHT22;9930;49.240;8.548;2023-02-01T11:08:54;10.00;80.50
19567;DHT22;9930;49.240;8.548;2023-02-01T11:11:22;10.00;80.70
19567;DHT22;9930;49.240;8.548;2023-02-01T11:13:54;10.00;80.60
19567;DHT22;9930;49.240;8.548;2023-02-01T11:16:37;10.00;80.30
19567;DHT22;9930;49.240;8.548;2023-02-01T11:19:15;10.00;80.30
19567;DHT22;9930;49.240;8.548;2023-02-01T11:21:48;10.00;80.50
19567;DHT22;9930;49.240;8.548;2023-02-01T11:24:22;10.00;80.40
19567;DHT22;9930;49.240;8.548;2023-02-01T11:26:50;9.90;80.30
19567;DHT22;9930;49.240;8.548;2023-02-01T11:29:18;9.90;80.40
19567;DHT22;9930;49.240;8.548;2023-02-01T11:31:58;9.90;80.50
19567;DHT22;9930;49.240;8.548;2023-02-01T11:34:47;9.90;80.50
19567;DHT22;9930;49.240;8.548;2023-02-01T11:37:28;9.90;80.50
19567;DHT22;9930;49.240;8.548;2023-02-01T11:40:01;9.90;80.40
19567;DHT22;9930;49.240;8.548;2023-02-01T11:42:32;9.80;80.40
19567;DHT22;9930;49.240;8.548;2023-02-01T11:45:33;9.80;80.30
19567;DHT22;9930;49.240;8.548;2023-02-01T11:48:14;9.80;80.10
19567;DHT22;9930;49.240;8.548;2023-02-01T11:51:10;9.80;80.20
19567;DHT22;9930;49.240;8.548;2023-02-01T12:15:42;9.90;79.60
19567;DHT22;9930;49.240;8.548;2023-02-01T12:29:35;9.90;79.70
19567;DHT22;9930;49.240;8.548;2023-02-01T12:32:39;9.90;79.60
19567;DHT22;9930;49.240;8.548;2023-02-01T12:35:52;9.90;79.60
19567;DHT22;9930;49.240;8.548;2023-02-01T12:39:01;9.90;79.20
19567;DHT22;9930;49.240;8.548;2023-02-01T12:47:55;9.90;79.00
19567;DHT22;9930;49.240;8.548;2023-02-01T12:50:53;9.90;79.10
19567;DHT22;9930;49.240;8.548;2023-02-01T12:53:51;9.90;78.50
19567;DHT22;9930;49.240;8.548;2023-02-01T13:02:46;9.90;78.40
19567;DHT22;9930;49.240;8.548;2023-02-01T13:06:04;9.90;78.40
19567;DHT22;9930;49.240;8.548;2023-02-01T13:11:24;9.90;78.20
19567;DHT22;9930;49.240;8.548;2023-02-01T13:16:47;9.90;78.20
19567;DHT22;9930;49.240;8.548;2023-02-01T13:22:00;9.90;78.00
19567;DHT22;9930;49.240;8.548;2023-02-01T13:24:48;9.90;77.90
19567;DHT22;9930;49.240;8.548;2023-02-01T13:27:29;9.90;77.50
19567;DHT22;9930;49.240;8.548;2023-02-01T13:30:19;10.00;77.80
19567;DHT22;9930;49.240;8.548;2023-02-01T13:35:43;10.00;77.90
19567;DHT22;9930;49.240;8.548;2023-02-01T13:43:59;10.00;77.20
19567;DHT22;9930;49.240;8.548;2023-02-01T13:46:31;10.00;77.40
19567;DHT22;9930;49.240;8.548;2023-02-01T13:49:28;10.00;77.40
19567;DHT22;9930;49.240;8.548;2023-02-01T13:52:17;10.00;76.90
19567;DHT22;9930;49.240;8.548;2023-02-01T13:55:13;10.00;77.10
19567;DHT22;9930;49.240;8.548;2023-02-01T13:57:50;10.00;76.30
19567;DHT22;9930;49.240;8.548;2023-02-01T14:00:29;10.00;76.90
19567;DHT22;9930;49.240;8.548;2023-02-01T14:10:58;10.00;76.70
19567;DHT22;9930;49.240;8.548;2023-02-01T14:13:36;10.00;76.20
19567;DHT22;9930;49.240;8.548;2023-02-01T14:16:15;10.00;76.20
19567;DHT22;9930;49.240;8.548;2023-02-01T14:21:32;10.00;76.30
19567;DHT22;9930;49.240;8.548;2023-02-01T14:24:03;10.00;75.90
19567;DHT22;9930;49.240;8.548;2023-02-01T14:26:47;10.00;76.20
19567;DHT22;9930;49.240;8.548;2023-02-01T14:39:36;10.00;76.00
19567;DHT22;9930;49.240;8.548;2023-02-01T14:50:44;10.00;75.60
19567;DHT22;9930;49.240;8.548;2023-02-01T14:55:53;10.00;75.80
19567;DHT22;9930;49.240;8.548;2023-02-01T14:58:48;10.00;75.50
19567;DHT22;9930;49.240;8.548;2023-02-01T15:01:28;10.00;75.30
19567;DHT22;9930;49.240;8.548;2023-02-01T15:04:09;10.00;75.50
19567;DHT22;9930;49.240;8.548;2023-02-01T15:06:44;10.00;75.50
19567;DHT22;9930;49.240;8.548;2023-02-01T15:09:29;10.00;76.20
19567;DHT22;9930;49.240;8.548;2023-02-01T15:14:26;10.10;75.50
19567;DHT22;9930;49.240;8.548;2023-02-01T15:16:54;10.10;75.50
19567;DHT22;9930;49.240;8.548;2023-02-01T15:19:25;10.10;75.40
19567;DHT22;9930;49.240;8.548;2023-02-01T15:21:56;10.10;75.30
19567;DHT22;9930;49.240;8.548;2023-02-01T15:24:27;10.10;75.30
19567;DHT22;9930;49.240;8.548;2023-02-01T15:26:55;10.10;75.20
19567;DHT22;9930;49.240;8.548;2023-02-01T15:29:30;10.10;75.30
19567;DHT22;9930;49.240;8.548;2023-02-01T15:31:58;10.10;75.20
19567;DHT22;9930;49.240;8.548;2023-02-01T15:34:49;10.10;75.30
19567;DHT22;9930;49.240;8.548;2023-02-01T15:37:20;10.10;74.90
19567;DHT22;9930;49.240;8.548;2023-02-01T15:42:54;10.10;74.50
19567;DHT22;9930;49.240;8.548;2023-02-01T15:45:25;10.10;75.00
19567;DHT22;9930;49.240;8.548;2023-02-01T15:47:55;10.10;75.20
19567;DHT22;9930;49.240;8.548;2023-02-01T15:50:22;10.10;75.20
19567;DHT22;9930;49.240;8.548;2023-02-01T15:52:50;10.10;75.10
19567;DHT22;9930;49.240;8.548;2023-02-01T15:55:20;10.10;75.20
19567;DHT22;9930;49.240;8.548;2023-02-01T15:57:49;10.10;75.10
19567;DHT22;9930;49.240;8.548;2023-02-01T16:05:42;10.10;74.80
19567;DHT22;9930;49.240;8.548;2023-02-01T16:08:11;10.10;74.90
19567;DHT22;9930;49.240;8.548;2023-02-01T16:10:47;10.10;75.00
19567;DHT22;9930;49.240;8.548;2023-02-01T16:13:19;10.10;74.80
19567;DHT22;9930;49.240;8.548;2023-02-01T16:15:48;10.10;75.00
19567;DHT22;9930;49.240;8.548;2023-02-01T16:18:16;10.10;74.90
19567;DHT22;9930;49.240;8.548;2023-02-01T16:20:46;10.10;74.80
19567;DHT22;9930;49.240;8.548;2023-02-01T16:23:15;10.10;74.90
19567;DHT22;9930;49.240;8.548;2023-02-01T16:25:41;10.10;74.80
19567;DHT22;9930;49.240;8.548;2023-02-01T16:28:09;10.10;74.80
19567;DHT22;9930;49.240;8.548;2023-02-01T16:30:42;10.10;74.70
19567;DHT22;9930;49.240;8.548;2023-02-01T16:33:15;10.10;74.70
19567;DHT22;9930;49.240;8.548;2023-02-01T16:35:46;10.10;74.60
19567;DHT22;9930;49.240;8.548;2023-02-01T16:38:16;10.10;74.80
19567;DHT22;9930;49.240;8.548;2023-02-01T16:40:48;10.10;74.80
19567;DHT22;9930;49.240;8.548;2023-02-01T16:45:46;10.10;74.80
19567;DHT22;9930;49.240;8.548;2023-02-01T16:48:31;10.10;74.90
19567;DHT22;9930;49.240;8.548;2023-02-01T16:51:14;10.00;74.60
19567;DHT22;9930;49.240;8.548;2023-02-01T16:53:42;10.00;74.70
19567;DHT22;9930;49.240;8.548;2023-02-01T16:56:28;10.00;74.80
19567;DHT22;9930;49.240;8.548;2023-02-01T16:58:57;10.00;74.30
19567;DHT22;9930;49.240;8.548;2023-02-01T17:01:25;10.00;74.60
19567;DHT22;9930;49.240;8.548;2023-02-01T17:03:51;10.00;74.70
19567;DHT22;9930;49.240;8.548;2023-02-01T17:06:19;10.00;74.70
19567;DHT22;9930;49.240;8.548;2023-02-01T17:08:51;10.00;74.80
19567;DHT22;9930;49.240;8.548;2023-02-01T17:11:19;10.00;74.70
19567;DHT22;9930;49.240;8.548;2023-02-01T17:13:45;10.00;74.80
19567;DHT22;9930;49.240;8.548;2023-02-01T17:19:04;9.90;74.70
19567;DHT22;9930;49.240;8.548;2023-02-01T17:21:44;9.90;74.40
19567;DHT22;9930;49.240;8.548;2023-02-01T17:24:16;9.90;74.80
19567;DHT22;9930;49.240;8.548;2023-02-01T17:26:44;9.90;74.80
19567;DHT22;9930;49.240;8.548;2023-02-01T17:29:12;9.90;74.80
19567;DHT22;9930;49.240;8.548;2023-02-01T17:31:42;9.90;74.80
19567;DHT22;9930;49.240;8.548;2023-02-01T17:34:12;9.90;74.80
19567;DHT22;9930;49.240;8.548;2023-02-01T17:36:46;9.90;74.90
19567;DHT22;9930;49.240;8.548;2023-02-01T17:39:13;9.90;74.90
19567;DHT22;9930;49.240;8.548;2023-02-01T17:42:01;9.90;74.90
19567;DHT22;9930;49.240;8.548;2023-02-01T17:44:28;9.90;75.00
19567;DHT22;9930;49.240;8.548;2023-02-01T17:46:54;9.90;74.90
19567;DHT22;9930;49.240;8.548;2023-02-01T17:49:22;9.90;74.80
19567;DHT22;9930;49.240;8.548;2023-02-01T17:51:48;9.90;74.90
19567;DHT22;9930;49.240;8.548;2023-02-01T17:54:17;9.90;74.80
19567;DHT22;9930;49.240;8.548;2023-02-01T17:56:44;9.90;74.80
19567;DHT22;9930;49.240;8.548;2023-02-01T17:59:13;9.90;74.80
19567;DHT22;9930;49.240;8.548;2023-02-01T18:01:40;9.90;74.70
19567;DHT22;9930;49.240;8.548;2023-02-01T18:04:12;9.90;74.70
19567;DHT22;9930;49.240;8.548;2023-02-01T18:06:41;9.90;74.60
19567;DHT22;9930;49.240;8.548;2023-02-01T18:09:10;9.90;74.60
19567;DHT22;9930;49.240;8.548;2023-02-01T18:11:40;9.90;74.70
19567;DHT22;9930;49.240;8.548;2023-02-01T18:14:13;9.90;74.60
19567;DHT22;9930;49.240;8.548;2023-02-01T18:16:41;9.90;74.40
19567;DHT22;9930;49.240;8.548;2023-02-01T18:19:11;9.90;74.60
19567;DHT22;9930;49.240;8.548;2023-02-01T18:21:41;9.90;74.60
19567;DHT22;9930;49.240;8.548;2023-02-01T18:24:12;9.90;74.40
19567;DHT22;9930;49.240;8.548;2023-02-01T18:26:41;9.90;74.40
19567;DHT22;9930;49.240;8.548;2023-02-01T18:29:10;9.90;74.50
19567;DHT22;9930;49.240;8.548;2023-02-01T18:32:04;9.90;74.50
19567;DHT22;9930;49.240;8.548;2023-02-01T18:34:40;9.90;74.40
19567;DHT22;9930;49.240;8.548;2023-02-01T18:37:06;9.90;74.50
19567;DHT22;9930;49.240;8.548;2023-02-01T18:39:39;9.90;74.50
19567;DHT22;9930;49.240;8.548;2023-02-01T18:42:11;10.00;74.50
19567;DHT22;9930;49.240;8.548;2023-02-01T18:44:40;10.00;74.40
19567;DHT22;9930;49.240;8.548;2023-02-01T18:47:08;9.90;74.40
19567;DHT22;9930;49.240;8.548;2023-02-01T18:49:39;9.90;74.40
19567;DHT22;9930;49.240;8.548;2023-02-01T18:52:06;9.90;74.40
19567;DHT22;9930;49.240;8.548;2023-02-01T18:54:40;10.00;74.50
19567;DHT22;9930;49.240;8.548;2023-02-01T18:57:10;9.90;74.50
19567;DHT22;9930;49.240;8.548;2023-02-01T18:59:40;9.90;74.40
19567;DHT22;9930;49.240;8.548;2023-02-01T19:02:11;9.90;74.60
19567;DHT22;9930;49.240;8.548;2023-02-01T19:04:40;10.00;74.50
19567;DHT22;9930;49.240;8.548;2023-02-01T19:07:14;10.00;74.60
19567;DHT22;9930;49.240;8.548;2023-02-01T19:09:43;10.00;74.60
19567;DHT22;9930;49.240;8.548;2023-02-01T19:12:14;10.00;74.50
19567;DHT22;9930;49.240;8.548;2023-02-01T19:14:40;10.00;74.50
19567;DHT22;9930;49.240;8.548;2023-02-01T19:17:11;10.00;74.60
19567;DHT22;9930;49.240;8.548;2023-02-01T19:19:40;10.00;74.60
19567;DHT22;9930;49.240;8.548;2023-02-01T19:22:10;10.00;74.50
19567;DHT22;9930;49.240;8.548;2023-02-01T19:24:40;10.00;74.50